Terminal Aerodrome Forecast
Issued by NWS

Home | Current Version | Previous Version | Text Only | Print | Product List | Glossary On
Versions: 1 2 3 4 5 6 7 8 9 10 11 12 13 14 15 16
000
FTUS42 KTBW 221140
TAFPGD
TAF
KPGD 221140Z 2212/2312 19014KT P6SM SCT005 BKN015 BKN090
     FM221400 20016G26KT P6SM BKN025 BKN060
     FM222000 21023G33KT P6SM VCTS SCT010CB BKN025
     FM230500 25015G25KT P6SM BKN050=

USA.gov is the U.S. government's official web portal to all federal, state and local government web resources and services.